Time;durP1;ratioP1;P1;durP2;ratioP2;P2;SDS_P1;SDS_P2;PMS_P1;PMS_P2;Temp;Humidity;BMP_temperature;BMP_pressure;BME280_temperature;BME280_humidity;BME280_pressure;Samples;Min_cycle;Max_cycle;Signal;HPM_P1;HPM_P2
2022/07/30 00:02:12;;;;;;;5.10;2.50;;;22.00;57.40;;;;;;5012068;28;20694;-93
2022/07/30 00:04:39;;;;;;;7.70;3.03;;;21.90;57.20;;;;;;5010736;28;20213;-94
2022/07/30 00:07:06;;;;;;;11.07;4.33;;;22.00;57.30;;;;;;5009805;28;20205;-93
2022/07/30 00:09:34;;;;;;;13.83;3.90;;;21.90;57.20;;;;;;5001500;28;20213;-92
2022/07/30 00:12:04;;;;;;;18.07;6.23;;;21.90;57.40;;;;;;5009977;28;20209;-93
2022/07/30 00:14:31;;;;;;;10.53;3.60;;;21.90;57.60;;;;;;5013789;28;20213;-93
2022/07/30 00:16:58;;;;;;;12.67;3.60;;;21.90;57.70;;;;;;5012394;28;20216;-93
2022/07/30 00:19:25;;;;;;;12.77;4.30;;;21.90;58.00;;;;;;5010775;28;20302;-94
2022/07/30 00:21:54;;;;;;;10.30;4.00;;;21.80;57.50;;;;;;5008220;28;20580;-94
2022/07/30 00:24:22;;;;;;;11.17;4.53;;;21.80;57.60;;;;;;5009846;28;20208;-94
2022/07/30 00:26:52;;;;;;;10.63;3.50;;;21.80;57.70;;;;;;5008360;28;20201;-93
2022/07/30 00:29:20;;;;;;;9.60;3.40;;;21.80;57.90;;;;;;5005172;28;20224;-93
2022/07/30 00:31:47;;;;;;;9.87;3.57;;;21.80;58.00;;;;;;5008109;28;20240;-92
2022/07/30 00:34:15;;;;;;;13.63;4.40;;;21.80;58.10;;;;;;5015352;28;20234;-92
2022/07/30 00:36:43;;;;;;;6.50;3.00;;;21.70;58.00;;;;;;5011762;28;20210;-93
2022/07/30 00:39:13;;;;;;;11.77;3.73;;;21.70;58.00;;;;;;5012481;28;20236;-93
2022/07/30 00:41:56;;;;;;;10.27;4.43;;;21.70;58.00;;;;;;5009452;28;20543;-94
2022/07/30 00:44:26;;;;;;;7.50;3.30;;;21.70;58.40;;;;;;5010474;28;20210;-93
2022/07/30 00:46:56;;;;;;;6.67;3.10;;;21.60;58.00;;;;;;5010924;28;20209;-93
2022/07/30 00:49:23;;;;;;;10.50;4.00;;;21.60;58.20;;;;;;4994568;28;20221;-92
2022/07/30 00:51:52;;;;;;;11.57;4.10;;;21.60;58.00;;;;;;5003551;28;20620;-93
2022/07/30 00:54:20;;;;;;;7.37;3.30;;;21.60;58.00;;;;;;4991479;28;20198;-93
2022/07/30 00:56:47;;;;;;;12.60;3.90;;;21.50;57.90;;;;;;5009994;28;20222;-91
2022/07/30 00:59:14;;;;;;;12.47;4.83;;;21.50;57.90;;;;;;5004542;28;20206;-94
2022/07/30 01:01:43;;;;;;;5.40;2.90;;;21.50;58.00;;;;;;5003712;28;20217;-93
2022/07/30 01:04:11;;;;;;;11.33;4.43;;;21.40;58.00;;;;;;5015076;28;20202;-92
2022/07/30 01:06:41;;;;;;;9.53;3.93;;;21.40;57.90;;;;;;5014890;28;20214;-94
2022/07/30 01:09:08;;;;;;;7.53;3.17;;;21.30;57.90;;;;;;5016151;28;20269;-92
2022/07/30 01:11:37;;;;;;;13.53;4.77;;;21.30;58.40;;;;;;5011185;28;20198;-93
2022/07/30 01:14:06;;;;;;;8.50;3.63;;;21.30;58.90;;;;;;5015702;28;20243;-93
2022/07/30 01:16:34;;;;;;;8.97;3.93;;;21.20;58.70;;;;;;5014137;28;20213;-93
2022/07/30 01:22:00;;;;;;;10.87;4.10;;;21.10;59.20;;;;;;5011930;28;20229;-92
2022/07/30 01:24:32;;;;;;;19.03;6.10;;;21.10;59.40;;;;;;5011042;28;20697;-93
2022/07/30 01:27:07;;;;;;;10.13;4.30;;;21.00;59.20;;;;;;5006236;28;20206;-94
2022/07/30 01:29:36;;;;;;;17.50;6.20;;;21.00;59.30;;;;;;5013497;28;20295;-92
2022/07/30 01:32:16;;;;;;;12.00;4.17;;;21.00;59.30;;;;;;5013374;28;20945;-93
2022/07/30 01:34:45;;;;;;;9.97;4.23;;;20.90;59.90;;;;;;4996946;28;20241;-93
2022/07/30 01:37:13;;;;;;;10.67;4.37;;;20.90;59.40;;;;;;5013016;28;20212;-92
2022/07/30 01:39:42;;;;;;;19.03;6.37;;;20.90;59.50;;;;;;5011507;28;20747;-92
2022/07/30 01:42:13;;;;;;;10.97;4.03;;;20.90;59.80;;;;;;5012743;28;20252;-93
2022/07/30 01:44:52;;;;;;;11.63;3.50;;;20.90;60.10;;;;;;5012809;28;20676;-93
2022/07/30 01:47:20;;;;;;;5.40;3.07;;;20.80;60.80;;;;;;5012534;28;20208;-93
2022/07/30 01:49:50;;;;;;;7.80;3.50;;;20.80;59.90;;;;;;5010391;28;20242;-93
2022/07/30 01:52:20;;;;;;;13.90;5.23;;;20.80;59.90;;;;;;5012471;28;20581;-93
2022/07/30 01:54:50;;;;;;;12.43;4.83;;;20.80;60.20;;;;;;4997549;28;20258;-93
2022/07/30 01:57:23;;;;;;;11.33;4.40;;;20.80;60.40;;;;;;5011641;28;20225;-92
2022/07/30 01:59:55;;;;;;;10.37;4.10;;;20.70;60.10;;;;;;5013254;28;20210;-92
2022/07/30 02:02:22;;;;;;;11.87;4.57;;;20.70;60.00;;;;;;5012747;28;20205;-93
2022/07/30 02:04:50;;;;;;;8.90;3.73;;;20.80;60.10;;;;;;5010177;28;20574;-93
2022/07/30 02:07:23;;;;;;;10.53;4.50;;;20.70;59.80;;;;;;5011626;28;20903;-94
2022/07/30 02:09:54;;;;;;;6.83;3.27;;;20.70;60.80;;;;;;5011543;28;20296;-92
2022/07/30 02:12:28;;;;;;;12.70;4.70;;;20.70;60.20;;;;;;5013217;28;20205;-93
2022/07/30 02:15:10;;;;;;;7.43;3.73;;;20.70;60.60;;;;;;5012613;28;20202;-94
2022/07/30 02:17:45;;;;;;;9.20;4.20;;;20.60;60.30;;;;;;5013121;28;20212;-94
2022/07/30 02:20:14;;;;;;;11.80;4.60;;;20.70;60.00;;;;;;5011865;28;20898;-93
2022/07/30 02:23:12;;;;;;;9.97;4.60;;;20.60;59.60;;;;;;5013265;28;20209;-93
2022/07/30 02:25:44;;;;;;;7.10;3.33;;;20.60;60.00;;;;;;5011439;28;20201;-92
2022/07/30 02:28:14;;;;;;;18.70;6.27;;;20.60;59.60;;;;;;5009857;28;20201;-93
2022/07/30 02:30:48;;;;;;;11.67;4.63;;;20.50;59.60;;;;;;5011296;28;20267;-93
2022/07/30 02:33:23;;;;;;;10.80;4.07;;;20.50;59.80;;;;;;5010660;28;20208;-94
2022/07/30 02:35:52;;;;;;;6.47;3.20;;;20.50;59.70;;;;;;5012426;28;20201;-93
2022/07/30 02:38:24;;;;;;;14.60;5.20;;;20.40;59.40;;;;;;5010075;28;20213;-92
2022/07/30 02:40:53;;;;;;;11.97;4.53;;;20.40;59.50;;;;;;5011439;28;20723;-93
2022/07/30 02:43:24;;;;;;;11.80;4.83;;;20.40;59.60;;;;;;5010841;28;20209;-92
2022/07/30 02:45:53;;;;;;;5.83;3.27;;;20.30;59.70;;;;;;5003939;28;20650;-93
2022/07/30 02:48:27;;;;;;;11.23;4.60;;;20.30;60.00;;;;;;5011572;28;20654;-93
2022/07/30 02:50:58;;;;;;;7.20;3.83;;;20.20;60.30;;;;;;5013129;28;20225;-93
2022/07/30 02:53:27;;;;;;;11.13;3.63;;;20.30;60.50;;;;;;5011213;28;20316;-91
2022/07/30 02:55:56;;;;;;;8.33;3.60;;;20.20;60.40;;;;;;4999957;28;20742;-92
2022/07/30 02:58:28;;;;;;;11.67;4.27;;;20.20;60.70;;;;;;5017203;28;20193;-92
2022/07/30 03:00:58;;;;;;;6.70;2.93;;;20.10;61.10;;;;;;5000728;28;20250;-94
2022/07/30 03:03:28;;;;;;;9.97;4.67;;;20.10;61.00;;;;;;5011916;28;20262;-92
2022/07/30 03:05:56;;;;;;;7.07;3.37;;;20.10;60.50;;;;;;5011147;28;20210;-93
2022/07/30 03:08:25;;;;;;;9.27;4.07;;;20.00;60.50;;;;;;5010104;28;20205;-93
2022/07/30 03:10:55;;;;;;;10.20;4.47;;;20.10;60.70;;;;;;5011844;28;20237;-92
2022/07/30 03:13:23;;;;;;;15.50;5.77;;;20.10;60.80;;;;;;5007138;28;20304;-93
2022/07/30 03:15:54;;;;;;;11.47;4.93;;;20.00;60.70;;;;;;5011758;28;20216;-92
2022/07/30 03:18:23;;;;;;;8.17;3.87;;;20.10;60.90;;;;;;5003576;28;20717;-92
2022/07/30 03:20:55;;;;;;;10.07;4.50;;;20.00;60.80;;;;;;5007343;28;20298;-93
2022/07/30 03:23:26;;;;;;;11.27;4.33;;;20.00;61.30;;;;;;4994371;28;20244;-92
2022/07/30 03:25:57;;;;;;;10.60;4.63;;;20.00;61.30;;;;;;5010572;28;20288;-92
2022/07/30 03:28:26;;;;;;;13.03;5.20;;;19.90;61.70;;;;;;5003322;28;20198;-93
2022/07/30 03:30:55;;;;;;;9.20;4.27;;;20.00;61.70;;;;;;5011192;28;20300;-94
2022/07/30 03:33:27;;;;;;;11.53;5.30;;;20.00;61.50;;;;;;5012092;28;20673;-92
2022/07/30 03:35:55;;;;;;;6.90;3.70;;;20.00;61.50;;;;;;5010871;28;20645;-93
2022/07/30 03:38:23;;;;;;;8.77;4.30;;;19.90;61.30;;;;;;5010313;28;20568;-92
2022/07/30 03:40:51;;;;;;;7.37;4.20;;;19.90;61.50;;;;;;5009487;28;20636;-92
2022/07/30 03:43:20;;;;;;;12.17;5.37;;;19.90;61.80;;;;;;5015389;28;20228;-93
2022/07/30 03:45:50;;;;;;;8.83;4.17;;;19.90;62.00;;;;;;5029057;28;20215;-93
2022/07/30 03:48:18;;;;;;;16.53;5.97;;;19.90;61.60;;;;;;5025111;28;20185;-92
2022/07/30 03:50:46;;;;;;;14.17;5.43;;;19.80;61.30;;;;;;5029340;28;20226;-91
2022/07/30 03:53:14;;;;;;;11.67;5.47;;;19.80;61.20;;;;;;5026866;28;20306;-93
2022/07/30 03:55:43;;;;;;;14.10;5.90;;;19.80;61.20;;;;;;5003197;28;20216;-94
2022/07/30 03:58:10;;;;;;;12.10;5.70;;;19.80;61.20;;;;;;5021759;28;20205;-94
2022/07/30 04:00:40;;;;;;;11.33;4.77;;;19.70;61.10;;;;;;5017841;28;20213;-94
2022/07/30 04:03:13;;;;;;;14.37;5.67;;;19.70;61.60;;;;;;5012114;28;20238;-93
2022/07/30 04:05:42;;;;;;;18.53;7.30;;;19.70;61.90;;;;;;5011057;28;20240;-94
2022/07/30 04:08:09;;;;;;;11.93;5.67;;;19.70;61.80;;;;;;5011555;28;20208;-92
2022/07/30 04:10:39;;;;;;;9.70;4.97;;;19.70;61.70;;;;;;5010798;28;20201;-93
2022/07/30 04:13:07;;;;;;;9.53;5.07;;;19.70;61.80;;;;;;4999615;28;20572;-93
2022/07/30 04:15:43;;;;;;;12.73;5.70;;;19.60;61.50;;;;;;5009520;28;20216;-93
2022/07/30 04:18:12;;;;;;;12.40;5.83;;;19.60;61.70;;;;;;4997667;28;20611;-93
2022/07/30 04:20:44;;;;;;;11.20;6.17;;;19.60;61.70;;;;;;5006778;28;20291;-93
2022/07/30 04:23:15;;;;;;;9.47;6.00;;;19.50;62.00;;;;;;5010199;28;20295;-93
2022/07/30 04:25:44;;;;;;;10.03;6.13;;;19.50;61.80;;;;;;4992571;28;20263;-92
2022/07/30 04:28:11;;;;;;;11.53;6.63;;;19.50;62.10;;;;;;5011087;28;20209;-93
2022/07/30 04:30:41;;;;;;;13.00;6.73;;;19.50;62.30;;;;;;5008776;28;20232;-92
2022/07/30 04:33:08;;;;;;;12.33;7.07;;;19.50;62.60;;;;;;5013792;28;20677;-93
2022/07/30 04:35:35;;;;;;;15.63;7.27;;;19.40;62.20;;;;;;5012103;28;20859;-93
2022/07/30 04:38:05;;;;;;;10.73;6.70;;;19.40;62.70;;;;;;5012937;28;20240;-93
2022/07/30 04:40:35;;;;;;;11.53;7.63;;;19.40;62.80;;;;;;5012059;28;20231;-92
2022/07/30 04:43:03;;;;;;;11.20;7.27;;;19.40;63.00;;;;;;5012915;28;20209;-93
2022/07/30 04:45:38;;;;;;;12.27;7.57;;;19.40;62.80;;;;;;5011087;28;20255;-93
2022/07/30 04:48:05;;;;;;;11.80;6.97;;;19.40;62.80;;;;;;5014196;28;20208;-92
2022/07/30 04:50:35;;;;;;;12.23;7.93;;;19.40;63.00;;;;;;5012938;28;20653;-92
2022/07/30 04:53:04;;;;;;;10.20;6.60;;;19.40;63.10;;;;;;5013520;28;20291;-93
2022/07/30 04:55:33;;;;;;;13.87;7.97;;;19.40;63.30;;;;;;5013005;28;20319;-93
2022/07/30 04:58:02;;;;;;;13.27;8.43;;;19.50;63.40;;;;;;5013391;28;20237;-92
2022/07/30 05:00:30;;;;;;;16.70;9.77;;;19.50;63.60;;;;;;5005226;28;20280;-92
2022/07/30 05:03:12;;;;;;;11.37;7.70;;;19.50;63.50;;;;;;5005692;28;20205;-93
2022/07/30 05:05:41;;;;;;;12.57;7.93;;;19.50;64.20;;;;;;5010420;28;20275;-92
2022/07/30 05:08:13;;;;;;;17.97;9.73;;;19.50;63.50;;;;;;5000738;28;20578;-91
2022/07/30 05:10:41;;;;;;;15.90;9.23;;;19.50;64.70;;;;;;5012144;28;21009;-92
2022/07/30 05:13:13;;;;;;;13.20;9.00;;;19.50;63.80;;;;;;5011109;28;20578;-91
2022/07/30 05:15:44;;;;;;;21.67;11.33;;;19.50;64.10;;;;;;5010328;28;20275;-92
2022/07/30 05:18:11;;;;;;;14.03;9.50;;;19.50;64.10;;;;;;5011292;28;20324;-91
2022/07/30 05:20:39;;;;;;;13.03;10.07;;;19.50;63.90;;;;;;5013143;28;20453;-93
2022/07/30 05:23:07;;;;;;;12.10;9.53;;;19.50;64.10;;;;;;5013150;28;20241;-92
2022/07/30 05:25:36;;;;;;;14.97;10.73;;;19.50;64.30;;;;;;5010026;28;20300;-93
2022/07/30 05:28:06;;;;;;;15.53;11.80;;;19.50;65.30;;;;;;5010989;28;21073;-92
2022/07/30 05:30:34;;;;;;;17.67;10.57;;;19.50;64.60;;;;;;5007398;28;20216;-92
2022/07/30 05:33:01;;;;;;;16.03;9.63;;;19.50;64.70;;;;;;5012064;28;20213;-92
2022/07/30 05:35:27;;;;;;;12.90;8.80;;;19.60;64.70;;;;;;5013315;28;20688;-93
2022/07/30 05:38:00;;;;;;;18.37;10.70;;;19.60;64.80;;;;;;5009342;28;20232;-93
2022/07/30 05:40:28;;;;;;;14.77;9.53;;;19.60;65.40;;;;;;5015829;28;20209;-92
2022/07/30 05:42:56;;;;;;;16.00;10.27;;;19.60;65.30;;;;;;5016845;28;20260;-93
2022/07/30 05:45:25;;;;;;;22.57;12.30;;;19.70;65.40;;;;;;5006790;28;20604;-93
2022/07/30 05:47:55;;;;;;;14.37;9.77;;;19.70;65.40;;;;;;5008506;28;20236;-93
2022/07/30 05:50:24;;;;;;;12.73;9.43;;;19.70;65.50;;;;;;4995035;28;20667;-93
2022/07/30 05:52:54;;;;;;;18.83;11.83;;;19.80;65.50;;;;;;5001267;28;20225;-92
2022/07/30 05:55:21;;;;;;;15.83;11.10;;;19.90;65.70;;;;;;5005520;28;20263;-92
2022/07/30 05:57:49;;;;;;;18.17;11.73;;;19.90;65.50;;;;;;5009355;28;20221;-93
2022/07/30 06:00:18;;;;;;;22.97;12.53;;;20.00;65.60;;;;;;5006022;28;20279;-93
2022/07/30 06:02:45;;;;;;;15.17;11.67;;;20.10;65.80;;;;;;5006904;28;20276;-92
2022/07/30 06:05:15;;;;;;;14.83;10.50;;;20.20;65.80;;;;;;5008379;28;20255;-91
2022/07/30 06:07:45;;;;;;;21.57;11.10;;;20.20;66.00;;;;;;5006973;28;22050;-92
2022/07/30 06:10:13;;;;;;;19.77;10.70;;;20.30;65.90;;;;;;5005194;28;20229;-92
2022/07/30 06:12:41;;;;;;;23.77;12.23;;;20.30;65.70;;;;;;5004815;28;20685;-91
2022/07/30 06:15:12;;;;;;;16.63;9.63;;;20.40;65.80;;;;;;5008633;28;20277;-91
2022/07/30 06:17:45;;;;;;;20.07;9.40;;;20.50;65.80;;;;;;5010246;28;20696;-92
2022/07/30 06:20:13;;;;;;;16.47;9.20;;;20.50;66.30;;;;;;5010156;28;20582;-91
2022/07/30 06:22:41;;;;;;;23.03;11.33;;;20.60;66.40;;;;;;5009265;28;20229;-91
2022/07/30 06:25:09;;;;;;;18.47;8.57;;;20.60;66.40;;;;;;5008473;28;20285;-92
2022/07/30 06:27:36;;;;;;;16.90;9.00;;;20.70;66.50;;;;;;5007545;28;20206;-91
2022/07/30 06:30:06;;;;;;;12.83;8.27;;;20.70;66.50;;;;;;5010361;28;20236;-91
2022/07/30 06:32:35;;;;;;;12.87;6.93;;;20.80;66.60;;;;;;5002482;28;20214;-93
2022/07/30 06:35:06;;;;;;;14.13;8.07;;;20.90;66.90;;;;;;5011158;28;20733;-93
2022/07/30 06:37:34;;;;;;;15.07;7.27;;;21.00;67.10;;;;;;5002842;28;20917;-93
2022/07/30 06:40:01;;;;;;;11.90;6.83;;;21.10;66.90;;;;;;5004717;28;20602;-93
2022/07/30 06:42:29;;;;;;;19.33;8.60;;;21.20;67.00;;;;;;5005804;28;20233;-92
2022/07/30 06:44:56;;;;;;;16.70;8.30;;;21.30;67.20;;;;;;5009179;28;20205;-93
2022/07/30 06:47:25;;;;;;;10.27;6.00;;;21.40;67.20;;;;;;5007976;28;20624;-92
2022/07/30 06:49:53;;;;;;;10.00;5.83;;;21.50;67.40;;;;;;5009625;28;20202;-93
2022/07/30 06:52:22;;;;;;;10.87;6.70;;;21.60;67.50;;;;;;5009515;28;20225;-91
2022/07/30 06:54:49;;;;;;;13.63;6.07;;;21.70;67.60;;;;;;5006930;28;20719;-92
2022/07/30 06:57:16;;;;;;;13.13;7.10;;;21.90;67.50;;;;;;5004270;28;20237;-91
2022/07/30 06:59:45;;;;;;;9.63;6.37;;;22.00;67.10;;;;;;5006746;28;20229;-92
2022/07/30 07:02:12;;;;;;;9.70;6.43;;;22.10;67.40;;;;;;5008752;28;20218;-93
2022/07/30 07:04:39;;;;;;;13.30;7.30;;;22.20;67.40;;;;;;5006485;28;20278;-92
2022/07/30 07:07:06;;;;;;;14.43;6.63;;;22.30;67.30;;;;;;5006093;28;20208;-92
2022/07/30 07:09:35;;;;;;;10.00;6.30;;;22.40;67.20;;;;;;5008357;28;20209;-92
2022/07/30 07:12:02;;;;;;;16.47;7.90;;;22.60;67.20;;;;;;5006908;28;20654;-92
2022/07/30 07:14:29;;;;;;;12.63;5.73;;;22.70;67.00;;;;;;5009070;28;20276;-92
2022/07/30 07:16:56;;;;;;;9.80;4.90;;;22.70;66.40;;;;;;5005761;28;20260;-92
2022/07/30 07:19:23;;;;;;;14.87;6.57;;;22.90;66.20;;;;;;5009325;28;20208;-92
2022/07/30 07:21:51;;;;;;;11.47;4.97;;;22.90;66.00;;;;;;5009560;28;20269;-93
2022/07/30 07:24:18;;;;;;;15.00;6.30;;;23.10;66.10;;;;;;5007656;28;20746;-92
2022/07/30 07:26:48;;;;;;;7.20;4.57;;;23.10;65.90;;;;;;5001310;28;20213;-92
2022/07/30 07:29:15;;;;;;;10.67;5.10;;;23.30;65.80;;;;;;5009355;28;20228;-93
2022/07/30 07:31:42;;;;;;;7.00;4.17;;;23.30;65.20;;;;;;5003168;28;20233;-91
2022/07/30 07:34:09;;;;;;;8.60;4.60;;;23.40;64.50;;;;;;5011862;28;20208;-90
2022/07/30 07:36:36;;;;;;;7.67;3.87;;;23.60;63.90;;;;;;5011576;28;20237;-92
2022/07/30 07:39:08;;;;;;;8.10;4.40;;;23.60;63.60;;;;;;5007645;28;20226;-92
2022/07/30 07:41:36;;;;;;;8.27;4.23;;;23.70;63.20;;;;;;5011077;28;20570;-93
2022/07/30 07:44:06;;;;;;;6.33;3.33;;;23.80;63.00;;;;;;5002301;28;20285;-93
2022/07/30 07:46:33;;;;;;;8.40;4.57;;;23.80;62.60;;;;;;5005877;28;20654;-93
2022/07/30 07:49:02;;;;;;;6.73;3.77;;;23.90;62.80;;;;;;5014564;28;20232;-93
2022/07/30 07:51:30;;;;;;;9.90;4.53;;;23.90;62.60;;;;;;5016326;28;20240;-93
2022/07/30 07:54:03;;;;;;;5.40;3.13;;;24.00;62.50;;;;;;5011100;28;20260;-93
2022/07/30 07:56:38;;;;;;;6.47;2.90;;;24.00;62.10;;;;;;4998614;28;20633;-93
2022/07/30 07:59:07;;;;;;;6.30;3.17;;;24.10;61.40;;;;;;5000044;28;20194;-92
2022/07/30 08:01:37;;;;;;;5.20;2.80;;;24.20;61.10;;;;;;4998441;28;20282;-93
2022/07/30 08:04:14;;;;;;;3.57;2.77;;;24.20;60.30;;;;;;4998739;28;20205;-91
2022/07/30 08:07:08;;;;;;;9.47;4.50;;;24.30;59.80;;;;;;4994909;28;20202;-93
2022/07/30 08:09:36;;;;;;;6.87;3.60;;;24.40;59.50;;;;;;5002566;28;20255;-94
2022/07/30 08:12:03;;;;;;;7.67;3.97;;;24.40;59.90;;;;;;5010794;28;20209;-93
2022/07/30 08:14:34;;;;;;;6.53;3.30;;;24.40;59.60;;;;;;5011641;28;20209;-93
2022/07/30 08:17:02;;;;;;;9.63;4.73;;;24.50;59.30;;;;;;5014879;28;20213;-93
2022/07/30 08:19:29;;;;;;;7.93;4.10;;;24.50;59.60;;;;;;5011242;28;20205;-91
2022/07/30 08:21:58;;;;;;;9.00;3.73;;;24.60;59.50;;;;;;5012815;28;20276;-92
2022/07/30 08:24:25;;;;;;;9.17;4.03;;;24.60;59.40;;;;;;5012875;28;20251;-90
2022/07/30 08:26:54;;;;;;;5.73;3.30;;;24.70;59.10;;;;;;5013763;28;20197;-91
2022/07/30 08:29:28;;;;;;;12.80;4.73;;;24.80;58.40;;;;;;5011200;28;20237;-93
2022/07/30 08:32:12;;;;;;;9.93;4.37;;;24.80;58.10;;;;;;5001399;28;20220;-92
2022/07/30 08:34:40;;;;;;;6.00;3.33;;;24.90;58.20;;;;;;5016200;28;20247;-93
2022/07/30 08:37:10;;;;;;;6.17;3.53;;;25.00;58.80;;;;;;5013660;28;20209;-92
2022/07/30 08:39:39;;;;;;;9.63;5.47;;;25.00;58.60;;;;;;5012701;28;20219;-92
2022/07/30 08:42:07;;;;;;;5.37;3.50;;;25.10;58.60;;;;;;5011969;28;20233;-92
2022/07/30 08:44:38;;;;;;;6.57;4.03;;;25.20;58.50;;;;;;5016098;28;20205;-92
2022/07/30 08:47:07;;;;;;;7.30;3.90;;;25.20;58.40;;;;;;5017067;28;20201;-92
2022/07/30 08:49:37;;;;;;;6.57;4.23;;;25.30;57.90;;;;;;5016409;28;20275;-92
2022/07/30 08:52:07;;;;;;;9.83;5.17;;;25.40;58.10;;;;;;5012031;28;20230;-92
2022/07/30 08:54:35;;;;;;;12.73;4.90;;;25.40;58.00;;;;;;5009581;28;20213;-94
2022/07/30 08:57:03;;;;;;;12.33;4.60;;;25.50;58.10;;;;;;5015003;28;20224;-93
2022/07/30 08:59:32;;;;;;;7.27;4.07;;;25.70;57.80;;;;;;4996886;28;20206;-95
2022/07/30 09:02:00;;;;;;;9.50;5.17;;;25.80;57.50;;;;;;5010940;28;20654;-93
2022/07/30 09:04:29;;;;;;;7.07;4.13;;;25.80;57.30;;;;;;5011847;28;20205;-93
2022/07/30 09:06:58;;;;;;;8.50;3.67;;;25.90;57.20;;;;;;5008968;28;20206;-95
2022/07/30 09:09:27;;;;;;;6.60;4.20;;;25.90;57.00;;;;;;5007586;28;20201;-94
2022/07/30 09:11:54;;;;;;;8.83;4.53;;;26.00;56.80;;;;;;5009231;28;20210;-95
2022/07/30 09:14:22;;;;;;;8.33;4.93;;;26.10;56.90;;;;;;5006287;28;20642;-92
2022/07/30 09:16:56;;;;;;;7.27;4.10;;;26.10;56.50;;;;;;5007743;28;20236;-93
2022/07/30 09:19:23;;;;;;;12.60;6.03;;;26.10;56.00;;;;;;5007253;28;20665;-92
2022/07/30 09:22:00;;;;;;;8.57;4.67;;;26.20;56.50;;;;;;5010582;28;20209;-93
2022/07/30 09:24:28;;;;;;;8.90;4.27;;;26.20;56.20;;;;;;5010632;28;20259;-91
2022/07/30 09:26:58;;;;;;;9.07;4.13;;;26.20;56.60;;;;;;5012447;28;20202;-93
2022/07/30 09:29:26;;;;;;;7.60;4.57;;;26.30;56.50;;;;;;5010396;28;20941;-91
2022/07/30 09:31:58;;;;;;;11.07;5.23;;;26.30;56.20;;;;;;5011381;28;20205;-95
2022/07/30 09:34:27;;;;;;;9.47;5.10;;;26.40;56.00;;;;;;5013182;28;20210;-92
2022/07/30 09:36:56;;;;;;;6.77;3.90;;;26.40;55.90;;;;;;5011216;28;20204;-91
2022/07/30 09:39:40;;;;;;;14.60;5.20;;;26.50;55.90;;;;;;5005746;28;20239;-93
2022/07/30 09:42:18;;;;;;;8.27;4.93;;;26.50;55.80;;;;;;5004865;28;20205;-94
2022/07/30 09:44:47;;;;;;;6.27;3.67;;;26.60;55.50;;;;;;5003284;28;20214;-93
2022/07/30 09:47:30;;;;;;;8.50;4.50;;;26.70;55.70;;;;;;4992550;28;20190;-94
2022/07/30 09:50:03;;;;;;;7.97;3.90;;;26.70;55.00;;;;;;4995837;28;20213;-94
2022/07/30 09:52:34;;;;;;;8.30;3.73;;;26.80;55.20;;;;;;4998291;28;20244;-95
2022/07/30 09:55:06;;;;;;;5.00;3.10;;;27.00;54.70;;;;;;5014154;28;20252;-93
2022/07/30 09:58:02;;;;;;;14.27;6.07;;;27.00;54.40;;;;;;5014295;28;20236;-95
2022/07/30 10:00:33;;;;;;;13.40;5.10;;;27.10;53.50;;;;;;5013993;28;20209;-95
2022/07/30 10:03:02;;;;;;;7.67;4.17;;;27.20;54.30;;;;;;5006329;28;20697;-94
2022/07/30 10:05:29;;;;;;;8.50;4.43;;;27.30;54.20;;;;;;4995220;28;20230;-94
2022/07/30 10:08:06;;;;;;;7.70;4.17;;;27.40;54.00;;;;;;5010534;28;20654;-94
2022/07/30 10:10:38;;;;;;;11.57;4.73;;;27.50;53.50;;;;;;4998425;28;20574;-94
2022/07/30 10:13:08;;;;;;;4.60;2.73;;;27.70;53.30;;;;;;5015532;28;20212;-95
2022/07/30 10:15:39;;;;;;;9.17;3.40;;;27.90;53.50;;;;;;5015064;28;20206;-93
2022/07/30 10:18:07;;;;;;;5.77;3.60;;;28.00;53.40;;;;;;4994344;28;20206;-94
2022/07/30 10:20:34;;;;;;;8.47;3.67;;;28.20;53.50;;;;;;4995722;28;20229;-95
2022/07/30 10:23:12;;;;;;;8.40;3.27;;;28.30;52.70;;;;;;5009676;28;20248;-93
2022/07/30 10:25:47;;;;;;;8.37;4.27;;;28.40;52.00;;;;;;5005026;28;20205;-95
2022/07/30 10:28:17;;;;;;;4.03;2.47;;;28.50;51.80;;;;;;4998117;28;20226;-95
2022/07/30 10:30:49;;;;;;;5.10;3.07;;;28.70;52.70;;;;;;4994934;28;20290;-95
2022/07/30 10:33:21;;;;;;;7.53;3.63;;;28.80;51.90;;;;;;5012905;28;20202;-95
2022/07/30 10:35:50;;;;;;;5.33;3.07;;;28.90;52.00;;;;;;5014061;28;20255;-92
2022/07/30 10:38:24;;;;;;;10.50;4.67;;;29.10;51.80;;;;;;5013837;28;20198;-95
2022/07/30 10:41:24;;;;;;;5.37;3.33;;;29.20;51.00;;;;;;5016709;28;20209;-95
2022/07/30 10:44:23;;;;;;;6.83;3.30;;;29.40;50.70;;;;;;5006431;28;20316;-94
2022/07/30 10:47:02;;;;;;;10.07;4.33;;;29.50;50.60;;;;;;4956020;28;20713;-93
2022/07/30 10:49:30;;;;;;;9.57;3.77;;;29.70;50.10;;;;;;5006754;28;20209;-93
2022/07/30 10:51:58;;;;;;;8.03;4.60;;;29.80;50.20;;;;;;5005041;28;20230;-95
2022/07/30 10:54:46;;;;;;;6.33;3.37;;;29.80;50.10;;;;;;5011357;28;20216;-95
2022/07/30 10:57:17;;;;;;;5.87;3.40;;;29.90;48.80;;;;;;5007884;28;20274;-95
2022/07/30 11:00:10;;;;;;;8.77;4.07;;;30.00;47.80;;;;;;5008841;28;20201;-95
2022/07/30 11:02:37;;;;;;;10.07;4.93;;;30.00;47.70;;;;;;5003237;28;20213;-93
2022/07/30 11:05:24;;;;;;;8.40;4.07;;;30.00;48.40;;;;;;5003916;28;20207;-92
2022/07/30 11:07:51;;;;;;;7.73;4.30;;;30.00;47.30;;;;;;5008208;28;20209;-93
2022/07/30 11:10:36;;;;;;;9.33;4.60;;;30.00;48.20;;;;;;5004496;28;20248;-95
2022/07/30 11:13:09;;;;;;;12.13;4.70;;;30.10;47.50;;;;;;5005115;28;20693;-93
2022/07/30 11:15:54;;;;;;;5.13;3.00;;;30.00;47.50;;;;;;5001075;28;20651;-94
2022/07/30 11:18:24;;;;;;;8.57;3.20;;;30.00;46.90;;;;;;5012991;28;20709;-95
2022/07/30 11:21:14;;;;;;;6.93;3.97;;;30.00;47.70;;;;;;5008217;28;20995;-92
2022/07/30 11:23:44;;;;;;;8.80;2.80;;;29.90;46.60;;;;;;5006059;28;20234;-93
2022/07/30 11:26:33;;;;;;;6.27;3.20;;;29.90;47.10;;;;;;5012607;28;20225;-92
2022/07/30 11:29:05;;;;;;;5.37;3.07;;;29.90;47.40;;;;;;4987038;28;20206;-93
2022/07/30 11:31:38;;;;;;;5.90;3.10;;;29.80;46.80;;;;;;5017489;28;20271;-92
2022/07/30 11:34:30;;;;;;;3.60;2.00;;;29.80;47.20;;;;;;5009296;28;20212;-94
2022/07/30 11:37:07;;;;;;;7.30;3.23;;;29.80;46.70;;;;;;4994981;28;20209;-94
2022/07/30 11:40:18;;;;;;;5.70;3.00;;;29.80;46.70;;;;;;5011608;28;20205;-94
2022/07/30 11:42:58;;;;;;;6.93;3.37;;;29.80;46.20;;;;;;4951764;28;20300;-94
2022/07/30 11:45:31;;;;;;;4.90;2.67;;;29.80;47.00;;;;;;5015227;28;20194;-95
2022/07/30 11:48:09;;;;;;;7.70;3.07;;;29.80;46.70;;;;;;5012300;28;20213;-91
2022/07/30 11:50:38;;;;;;;10.73;4.83;;;29.80;46.50;;;;;;5015474;28;20237;-94
2022/07/30 11:53:08;;;;;;;4.63;2.40;;;29.80;46.10;;;;;;5018510;28;20198;-94
2022/07/30 11:55:38;;;;;;;5.70;2.80;;;29.80;46.00;;;;;;5020305;28;20241;-94
2022/07/30 11:58:08;;;;;;;10.07;4.20;;;29.90;45.90;;;;;;5016049;28;20205;-93
2022/07/30 12:00:40;;;;;;;4.80;2.83;;;29.90;45.90;;;;;;5021604;28;20198;-94
2022/07/30 12:03:10;;;;;;;8.40;3.53;;;29.90;45.60;;;;;;5033320;28;20768;-93
2022/07/30 12:05:39;;;;;;;6.70;2.80;;;29.90;45.80;;;;;;5027740;28;20288;-94
2022/07/30 12:08:06;;;;;;;4.77;2.47;;;30.00;46.10;;;;;;5017394;28;20237;-94
2022/07/30 12:10:38;;;;;;;5.77;2.70;;;30.10;46.00;;;;;;5019123;28;20288;-93
2022/07/30 12:13:13;;;;;;;7.80;3.17;;;30.10;45.30;;;;;;5017178;28;20201;-95
2022/07/30 12:15:47;;;;;;;5.60;2.63;;;30.10;45.30;;;;;;5000508;28;20221;-94
2022/07/30 12:18:23;;;;;;;11.93;4.23;;;30.10;44.60;;;;;;5012343;28;20218;-94
2022/07/30 12:21:07;;;;;;;4.57;2.60;;;30.20;45.10;;;;;;4997560;28;20243;-95
2022/07/30 12:23:38;;;;;;;6.43;2.83;;;30.30;44.60;;;;;;5004637;28;20698;-93
2022/07/30 12:26:07;;;;;;;9.37;4.23;;;30.30;44.70;;;;;;5007179;28;20210;-94
2022/07/30 12:28:36;;;;;;;8.17;4.20;;;30.40;44.80;;;;;;5007781;28;20627;-93
2022/07/30 12:31:06;;;;;;;8.43;3.27;;;30.40;44.30;;;;;;5007818;28;20210;-94
2022/07/30 12:33:34;;;;;;;9.57;3.03;;;30.50;44.00;;;;;;5013717;28;20528;-94
2022/07/30 12:36:02;;;;;;;7.00;3.47;;;30.50;44.20;;;;;;5008803;28;20205;-92
2022/07/30 12:38:44;;;;;;;7.63;3.30;;;30.60;44.30;;;;;;5010693;28;20716;-93
2022/07/30 12:41:11;;;;;;;3.73;2.03;;;30.70;44.00;;;;;;5012139;28;20260;-95
2022/07/30 12:43:50;;;;;;;7.27;3.30;;;30.80;43.90;;;;;;5009943;28;20229;-93
2022/07/30 12:46:20;;;;;;;6.53;3.03;;;30.90;43.30;;;;;;5009233;28;20201;-91
2022/07/30 12:48:54;;;;;;;6.20;3.03;;;30.90;43.60;;;;;;5009246;28;20570;-92
2022/07/30 12:51:24;;;;;;;8.53;2.63;;;31.00;43.00;;;;;;5009985;28;20259;-94
2022/07/30 12:53:54;;;;;;;4.67;2.20;;;31.10;42.90;;;;;;5013431;28;20209;-92
2022/07/30 12:56:24;;;;;;;5.00;2.27;;;31.20;42.90;;;;;;5011866;28;20665;-95
2022/07/30 12:58:51;;;;;;;7.47;3.42;;;31.20;42.50;;;;;;5012383;28;20198;-92
2022/07/30 13:01:39;;;;;;;9.68;3.70;;;31.30;42.40;;;;;;4999806;28;20268;-92
2022/07/30 13:04:06;;;;;;;7.90;3.63;;;31.30;41.10;;;;;;5011416;28;20264;-93